sensor_id;sensor_type;location;lat;lon;timestamp;P1;durP1;ratioP1;P2;durP2;ratioP2
68214;SDS011;55036;52.138;5.236;2022-07-25T00:01:43;6.13;;;4.30;;
68214;SDS011;55036;52.138;5.236;2022-07-25T00:04:11;5.88;;;3.88;;
68214;SDS011;55036;52.138;5.236;2022-07-25T00:06:40;5.10;;;4.15;;
68214;SDS011;55036;52.138;5.236;2022-07-25T00:09:08;7.88;;;4.20;;
68214;SDS011;55036;52.138;5.236;2022-07-25T00:11:35;4.70;;;4.25;;
68214;SDS011;55036;52.138;5.236;2022-07-25T00:14:02;5.00;;;4.03;;
68214;SDS011;55036;52.138;5.236;2022-07-25T00:16:29;6.00;;;4.38;;
68214;SDS011;55036;52.138;5.236;2022-07-25T00:18:56;5.07;;;4.57;;
68214;SDS011;55036;52.138;5.236;2022-07-25T00:21:23;6.30;;;4.30;;
68214;SDS011;55036;52.138;5.236;2022-07-25T00:23:50;6.82;;;4.50;;
68214;SDS011;55036;52.138;5.236;2022-07-25T00:26:17;6.55;;;4.60;;
68214;SDS011;55036;52.138;5.236;2022-07-25T00:28:44;7.25;;;5.07;;
68214;SDS011;55036;52.138;5.236;2022-07-25T00:31:11;6.90;;;4.97;;
68214;SDS011;55036;52.138;5.236;2022-07-25T00:33:38;9.50;;;4.38;;
68214;SDS011;55036;52.138;5.236;2022-07-25T00:36:08;4.63;;;4.18;;
68214;SDS011;55036;52.138;5.236;2022-07-25T00:38:35;6.63;;;4.57;;
68214;SDS011;55036;52.138;5.236;2022-07-25T00:41:02;12.20;;;5.45;;
68214;SDS011;55036;52.138;5.236;2022-07-25T00:43:30;6.22;;;4.63;;
68214;SDS011;55036;52.138;5.236;2022-07-25T00:45:57;7.70;;;5.30;;
68214;SDS011;55036;52.138;5.236;2022-07-25T00:48:26;5.85;;;4.90;;
68214;SDS011;55036;52.138;5.236;2022-07-25T00:50:54;5.30;;;4.53;;
68214;SDS011;55036;52.138;5.236;2022-07-25T00:53:21;7.40;;;4.70;;
68214;SDS011;55036;52.138;5.236;2022-07-25T00:55:48;6.85;;;5.50;;
68214;SDS011;55036;52.138;5.236;2022-07-25T00:58:16;5.60;;;5.07;;
68214;SDS011;55036;52.138;5.236;2022-07-25T01:00:44;5.32;;;4.80;;
68214;SDS011;55036;52.138;5.236;2022-07-25T01:03:11;8.55;;;5.50;;
68214;SDS011;55036;52.138;5.236;2022-07-25T01:05:37;6.90;;;5.20;;
68214;SDS011;55036;52.138;5.236;2022-07-25T01:08:04;8.73;;;5.30;;
68214;SDS011;55036;52.138;5.236;2022-07-25T01:10:32;6.35;;;5.05;;
68214;SDS011;55036;52.138;5.236;2022-07-25T01:12:59;5.20;;;4.57;;
68214;SDS011;55036;52.138;5.236;2022-07-25T01:15:26;6.18;;;4.97;;
68214;SDS011;55036;52.138;5.236;2022-07-25T01:17:53;7.57;;;5.30;;
68214;SDS011;55036;52.138;5.236;2022-07-25T01:20:25;5.65;;;5.10;;
68214;SDS011;55036;52.138;5.236;2022-07-25T01:22:53;6.53;;;4.70;;
68214;SDS011;55036;52.138;5.236;2022-07-25T01:25:20;6.75;;;5.43;;
68214;SDS011;55036;52.138;5.236;2022-07-25T01:27:48;6.10;;;4.30;;
68214;SDS011;55036;52.138;5.236;2022-07-25T01:30:21;8.45;;;5.30;;
68214;SDS011;55036;52.138;5.236;2022-07-25T01:32:49;6.13;;;5.07;;
68214;SDS011;55036;52.138;5.236;2022-07-25T01:35:15;7.97;;;5.28;;
68214;SDS011;55036;52.138;5.236;2022-07-25T01:37:43;8.05;;;5.03;;
68214;SDS011;55036;52.138;5.236;2022-07-25T01:40:11;8.23;;;5.18;;
68214;SDS011;55036;52.138;5.236;2022-07-25T01:42:38;7.20;;;5.50;;
68214;SDS011;55036;52.138;5.236;2022-07-25T01:45:05;6.85;;;5.38;;
68214;SDS011;55036;52.138;5.236;2022-07-25T01:47:32;9.38;;;5.18;;
68214;SDS011;55036;52.138;5.236;2022-07-25T01:49:59;6.95;;;5.20;;
68214;SDS011;55036;52.138;5.236;2022-07-25T01:52:26;5.68;;;5.18;;
68214;SDS011;55036;52.138;5.236;2022-07-25T01:54:52;6.95;;;5.15;;
68214;SDS011;55036;52.138;5.236;2022-07-25T01:57:19;7.25;;;5.32;;
68214;SDS011;55036;52.138;5.236;2022-07-25T01:59:49;7.72;;;5.55;;
68214;SDS011;55036;52.138;5.236;2022-07-25T02:02:16;6.30;;;5.07;;
68214;SDS011;55036;52.138;5.236;2022-07-25T02:04:42;9.02;;;5.75;;
68214;SDS011;55036;52.138;5.236;2022-07-25T02:07:09;7.60;;;5.65;;
68214;SDS011;55036;52.138;5.236;2022-07-25T02:09:36;7.90;;;5.70;;
68214;SDS011;55036;52.138;5.236;2022-07-25T02:12:03;7.43;;;5.22;;
68214;SDS011;55036;52.138;5.236;2022-07-25T02:14:32;8.15;;;5.53;;
68214;SDS011;55036;52.138;5.236;2022-07-25T02:16:59;5.93;;;5.30;;
68214;SDS011;55036;52.138;5.236;2022-07-25T02:19:26;7.15;;;5.68;;
68214;SDS011;55036;52.138;5.236;2022-07-25T02:21:53;6.72;;;6.03;;
68214;SDS011;55036;52.138;5.236;2022-07-25T02:24:19;8.00;;;6.22;;
68214;SDS011;55036;52.138;5.236;2022-07-25T02:26:46;8.23;;;5.72;;
68214;SDS011;55036;52.138;5.236;2022-07-25T02:29:13;7.07;;;5.95;;
68214;SDS011;55036;52.138;5.236;2022-07-25T02:31:39;7.57;;;6.00;;
68214;SDS011;55036;52.138;5.236;2022-07-25T02:34:06;8.45;;;6.22;;
68214;SDS011;55036;52.138;5.236;2022-07-25T02:36:33;10.15;;;6.47;;
68214;SDS011;55036;52.138;5.236;2022-07-25T02:39:00;8.10;;;5.95;;
68214;SDS011;55036;52.138;5.236;2022-07-25T02:41:27;7.20;;;6.07;;
68214;SDS011;55036;52.138;5.236;2022-07-25T02:43:54;7.18;;;5.90;;
68214;SDS011;55036;52.138;5.236;2022-07-25T02:46:21;6.63;;;5.97;;
68214;SDS011;55036;52.138;5.236;2022-07-25T02:48:48;6.13;;;5.53;;
68214;SDS011;55036;52.138;5.236;2022-07-25T02:51:14;8.20;;;5.80;;
68214;SDS011;55036;52.138;5.236;2022-07-25T02:53:43;6.43;;;5.80;;
68214;SDS011;55036;52.138;5.236;2022-07-25T02:56:23;7.85;;;6.05;;
68214;SDS011;55036;52.138;5.236;2022-07-25T02:58:49;7.10;;;6.40;;
68214;SDS011;55036;52.138;5.236;2022-07-25T03:01:16;7.57;;;6.03;;
68214;SDS011;55036;52.138;5.236;2022-07-25T03:03:43;8.98;;;6.68;;
68214;SDS011;55036;52.138;5.236;2022-07-25T03:06:10;7.28;;;6.03;;
68214;SDS011;55036;52.138;5.236;2022-07-25T03:08:36;10.27;;;6.50;;
68214;SDS011;55036;52.138;5.236;2022-07-25T03:11:03;10.20;;;6.93;;
68214;SDS011;55036;52.138;5.236;2022-07-25T03:13:30;9.32;;;6.45;;
68214;SDS011;55036;52.138;5.236;2022-07-25T03:15:58;7.43;;;6.22;;
68214;SDS011;55036;52.138;5.236;2022-07-25T03:18:25;9.70;;;6.85;;
68214;SDS011;55036;52.138;5.236;2022-07-25T03:20:52;8.63;;;6.93;;
68214;SDS011;55036;52.138;5.236;2022-07-25T03:23:19;9.52;;;6.93;;
68214;SDS011;55036;52.138;5.236;2022-07-25T03:25:45;10.38;;;7.15;;
68214;SDS011;55036;52.138;5.236;2022-07-25T03:28:12;10.25;;;7.55;;
68214;SDS011;55036;52.138;5.236;2022-07-25T03:30:39;9.10;;;7.28;;
68214;SDS011;55036;52.138;5.236;2022-07-25T03:33:06;9.63;;;7.35;;
68214;SDS011;55036;52.138;5.236;2022-07-25T03:35:32;7.30;;;6.35;;
68214;SDS011;55036;52.138;5.236;2022-07-25T03:38:00;8.88;;;6.85;;
68214;SDS011;55036;52.138;5.236;2022-07-25T03:40:27;8.30;;;6.93;;
68214;SDS011;55036;52.138;5.236;2022-07-25T03:42:54;7.95;;;6.85;;
68214;SDS011;55036;52.138;5.236;2022-07-25T03:45:20;9.80;;;7.53;;
68214;SDS011;55036;52.138;5.236;2022-07-25T03:47:47;8.63;;;7.38;;
68214;SDS011;55036;52.138;5.236;2022-07-25T03:50:14;8.18;;;7.07;;
68214;SDS011;55036;52.138;5.236;2022-07-25T03:52:41;8.07;;;6.88;;
68214;SDS011;55036;52.138;5.236;2022-07-25T03:55:09;9.90;;;7.55;;
68214;SDS011;55036;52.138;5.236;2022-07-25T03:57:36;8.38;;;7.47;;
68214;SDS011;55036;52.138;5.236;2022-07-25T04:00:04;8.77;;;7.40;;
68214;SDS011;55036;52.138;5.236;2022-07-25T04:02:33;11.30;;;8.13;;
68214;SDS011;55036;52.138;5.236;2022-07-25T04:05:00;13.80;;;7.93;;
68214;SDS011;55036;52.138;5.236;2022-07-25T04:07:27;8.93;;;7.30;;
68214;SDS011;55036;52.138;5.236;2022-07-25T04:09:53;9.10;;;7.68;;
68214;SDS011;55036;52.138;5.236;2022-07-25T04:12:20;8.48;;;7.35;;
68214;SDS011;55036;52.138;5.236;2022-07-25T04:14:47;12.45;;;8.43;;
68214;SDS011;55036;52.138;5.236;2022-07-25T04:17:13;12.13;;;7.95;;
68214;SDS011;55036;52.138;5.236;2022-07-25T04:19:40;11.68;;;7.90;;
68214;SDS011;55036;52.138;5.236;2022-07-25T04:22:07;9.80;;;7.53;;
68214;SDS011;55036;52.138;5.236;2022-07-25T04:24:34;8.80;;;7.22;;
68214;SDS011;55036;52.138;5.236;2022-07-25T04:27:01;8.32;;;7.47;;
68214;SDS011;55036;52.138;5.236;2022-07-25T04:29:28;9.68;;;7.35;;
68214;SDS011;55036;52.138;5.236;2022-07-25T04:31:54;8.52;;;7.38;;
68214;SDS011;55036;52.138;5.236;2022-07-25T04:34:21;11.45;;;7.55;;
68214;SDS011;55036;52.138;5.236;2022-07-25T04:36:48;9.30;;;7.82;;
68214;SDS011;55036;52.138;5.236;2022-07-25T04:39:15;9.82;;;7.68;;
68214;SDS011;55036;52.138;5.236;2022-07-25T04:41:42;9.07;;;7.43;;
68214;SDS011;55036;52.138;5.236;2022-07-25T04:44:08;12.27;;;7.78;;
68214;SDS011;55036;52.138;5.236;2022-07-25T04:46:35;7.75;;;6.95;;
68214;SDS011;55036;52.138;5.236;2022-07-25T04:49:02;9.07;;;7.57;;
68214;SDS011;55036;52.138;5.236;2022-07-25T04:51:29;8.60;;;7.72;;
68214;SDS011;55036;52.138;5.236;2022-07-25T04:53:55;11.10;;;8.32;;
68214;SDS011;55036;52.138;5.236;2022-07-25T04:56:22;10.43;;;8.18;;
68214;SDS011;55036;52.138;5.236;2022-07-25T04:58:49;8.68;;;7.78;;
68214;SDS011;55036;52.138;5.236;2022-07-25T05:01:16;10.27;;;8.85;;
68214;SDS011;55036;52.138;5.236;2022-07-25T05:03:42;9.23;;;7.38;;
68214;SDS011;55036;52.138;5.236;2022-07-25T05:06:15;9.68;;;8.20;;
68214;SDS011;55036;52.138;5.236;2022-07-25T05:08:43;9.10;;;8.00;;
68214;SDS011;55036;52.138;5.236;2022-07-25T05:11:10;9.77;;;8.18;;
68214;SDS011;55036;52.138;5.236;2022-07-25T05:13:36;10.25;;;7.93;;
68214;SDS011;55036;52.138;5.236;2022-07-25T05:16:03;9.70;;;8.15;;
68214;SDS011;55036;52.138;5.236;2022-07-25T05:18:32;9.43;;;8.25;;
68214;SDS011;55036;52.138;5.236;2022-07-25T05:20:59;11.27;;;9.15;;
68214;SDS011;55036;52.138;5.236;2022-07-25T05:23:26;10.23;;;8.88;;
68214;SDS011;55036;52.138;5.236;2022-07-25T05:25:52;10.05;;;8.48;;
68214;SDS011;55036;52.138;5.236;2022-07-25T05:28:19;10.02;;;8.45;;
68214;SDS011;55036;52.138;5.236;2022-07-25T05:30:46;9.88;;;8.25;;
68214;SDS011;55036;52.138;5.236;2022-07-25T05:33:13;11.27;;;8.60;;
68214;SDS011;55036;52.138;5.236;2022-07-25T05:35:40;10.60;;;8.65;;
68214;SDS011;55036;52.138;5.236;2022-07-25T05:38:06;9.15;;;8.13;;
68214;SDS011;55036;52.138;5.236;2022-07-25T05:40:33;8.52;;;7.60;;
68214;SDS011;55036;52.138;5.236;2022-07-25T05:43:00;10.20;;;8.43;;
68214;SDS011;55036;52.138;5.236;2022-07-25T05:45:29;10.15;;;8.23;;
68214;SDS011;55036;52.138;5.236;2022-07-25T05:47:56;15.43;;;8.25;;
68214;SDS011;55036;52.138;5.236;2022-07-25T05:50:23;11.68;;;9.20;;
68214;SDS011;55036;52.138;5.236;2022-07-25T05:52:49;11.23;;;8.70;;
68214;SDS011;55036;52.138;5.236;2022-07-25T05:55:16;10.77;;;8.70;;
68214;SDS011;55036;52.138;5.236;2022-07-25T05:57:43;17.35;;;9.70;;
68214;SDS011;55036;52.138;5.236;2022-07-25T06:00:10;11.68;;;9.07;;
68214;SDS011;55036;52.138;5.236;2022-07-25T06:02:37;12.13;;;8.65;;
68214;SDS011;55036;52.138;5.236;2022-07-25T06:05:04;11.45;;;8.35;;
68214;SDS011;55036;52.138;5.236;2022-07-25T06:07:31;11.48;;;8.18;;
68214;SDS011;55036;52.138;5.236;2022-07-25T06:09:58;11.80;;;8.30;;
68214;SDS011;55036;52.138;5.236;2022-07-25T06:12:25;13.02;;;7.45;;
68214;SDS011;55036;52.138;5.236;2022-07-25T06:14:52;12.10;;;7.80;;
68214;SDS011;55036;52.138;5.236;2022-07-25T06:17:19;9.63;;;6.70;;
68214;SDS011;55036;52.138;5.236;2022-07-25T06:19:45;7.13;;;6.03;;
68214;SDS011;55036;52.138;5.236;2022-07-25T06:22:12;7.28;;;5.47;;
68214;SDS011;55036;52.138;5.236;2022-07-25T06:24:39;7.00;;;4.85;;
68214;SDS011;55036;52.138;5.236;2022-07-25T06:27:06;6.65;;;3.75;;
68214;SDS011;55036;52.138;5.236;2022-07-25T06:29:34;4.88;;;3.63;;
68214;SDS011;55036;52.138;5.236;2022-07-25T06:32:01;3.80;;;3.42;;
68214;SDS011;55036;52.138;5.236;2022-07-25T06:34:28;4.18;;;3.47;;
68214;SDS011;55036;52.138;5.236;2022-07-25T06:36:55;4.38;;;3.58;;
68214;SDS011;55036;52.138;5.236;2022-07-25T06:39:24;6.18;;;3.45;;
68214;SDS011;55036;52.138;5.236;2022-07-25T06:41:51;5.45;;;3.15;;
68214;SDS011;55036;52.138;5.236;2022-07-25T06:44:17;6.45;;;3.17;;
68214;SDS011;55036;52.138;5.236;2022-07-25T06:46:44;5.13;;;3.10;;
68214;SDS011;55036;52.138;5.236;2022-07-25T06:49:11;4.35;;;2.85;;
68214;SDS011;55036;52.138;5.236;2022-07-25T06:51:38;4.18;;;2.88;;
68214;SDS011;55036;52.138;5.236;2022-07-25T06:54:05;7.03;;;2.83;;
68214;SDS011;55036;52.138;5.236;2022-07-25T06:56:32;5.13;;;2.85;;
68214;SDS011;55036;52.138;5.236;2022-07-25T06:58:59;4.20;;;2.60;;
68214;SDS011;55036;52.138;5.236;2022-07-25T07:01:26;4.03;;;2.58;;
68214;SDS011;55036;52.138;5.236;2022-07-25T07:03:53;3.78;;;2.80;;
68214;SDS011;55036;52.138;5.236;2022-07-25T07:06:20;4.00;;;2.38;;
68214;SDS011;55036;52.138;5.236;2022-07-25T07:08:46;3.42;;;2.40;;
68214;SDS011;55036;52.138;5.236;2022-07-25T07:11:13;6.13;;;2.40;;
68214;SDS011;55036;52.138;5.236;2022-07-25T07:13:41;5.57;;;2.58;;
68214;SDS011;55036;52.138;5.236;2022-07-25T07:16:08;2.83;;;2.30;;
68214;SDS011;55036;52.138;5.236;2022-07-25T07:18:36;5.45;;;2.40;;
68214;SDS011;55036;52.138;5.236;2022-07-25T07:21:03;4.05;;;2.42;;
68214;SDS011;55036;52.138;5.236;2022-07-25T07:23:31;3.33;;;2.40;;
68214;SDS011;55036;52.138;5.236;2022-07-25T07:25:58;2.45;;;1.92;;
68214;SDS011;55036;52.138;5.236;2022-07-25T07:28:25;4.57;;;2.17;;
68214;SDS011;55036;52.138;5.236;2022-07-25T07:30:52;5.22;;;2.08;;
68214;SDS011;55036;52.138;5.236;2022-07-25T07:33:39;4.35;;;1.95;;
68214;SDS011;55036;52.138;5.236;2022-07-25T07:36:05;4.63;;;2.17;;
68214;SDS011;55036;52.138;5.236;2022-07-25T07:38:32;7.90;;;1.92;;
68214;SDS011;55036;52.138;5.236;2022-07-25T07:40:59;2.47;;;1.77;;
68214;SDS011;55036;52.138;5.236;2022-07-25T07:43:26;6.10;;;2.05;;
68214;SDS011;55036;52.138;5.236;2022-07-25T07:45:57;3.60;;;1.98;;
68214;SDS011;55036;52.138;5.236;2022-07-25T07:48:27;3.60;;;2.10;;
68214;SDS011;55036;52.138;5.236;2022-07-25T07:50:56;2.83;;;1.63;;
68214;SDS011;55036;52.138;5.236;2022-07-25T07:53:23;3.13;;;1.70;;
68214;SDS011;55036;52.138;5.236;2022-07-25T07:56:09;2.88;;;1.60;;
68214;SDS011;55036;52.138;5.236;2022-07-25T07:58:37;2.70;;;1.83;;
68214;SDS011;55036;52.138;5.236;2022-07-25T08:01:05;3.40;;;1.67;;
68214;SDS011;55036;52.138;5.236;2022-07-25T08:03:32;3.13;;;2.00;;
68214;SDS011;55036;52.138;5.236;2022-07-25T08:05:59;2.50;;;1.90;;
68214;SDS011;55036;52.138;5.236;2022-07-25T08:08:26;5.95;;;2.10;;
68214;SDS011;55036;52.138;5.236;2022-07-25T08:10:56;3.08;;;1.88;;
68214;SDS011;55036;52.138;5.236;2022-07-25T08:13:26;3.28;;;1.77;;
68214;SDS011;55036;52.138;5.236;2022-07-25T08:15:56;3.05;;;1.80;;
68214;SDS011;55036;52.138;5.236;2022-07-25T08:18:25;3.80;;;1.75;;
68214;SDS011;55036;52.138;5.236;2022-07-25T08:20:52;5.43;;;1.50;;
68214;SDS011;55036;52.138;5.236;2022-07-25T08:23:19;6.65;;;2.22;;
68214;SDS011;55036;52.138;5.236;2022-07-25T08:25:47;2.15;;;1.60;;
68214;SDS011;55036;52.138;5.236;2022-07-25T08:28:15;3.83;;;1.42;;
68214;SDS011;55036;52.138;5.236;2022-07-25T08:30:41;2.30;;;1.25;;
68214;SDS011;55036;52.138;5.236;2022-07-25T08:33:09;5.07;;;1.85;;
68214;SDS011;55036;52.138;5.236;2022-07-25T08:35:39;4.30;;;1.48;;
68214;SDS011;55036;52.138;5.236;2022-07-25T08:38:07;3.55;;;1.25;;
68214;SDS011;55036;52.138;5.236;2022-07-25T08:40:36;2.53;;;1.27;;
68214;SDS011;55036;52.138;5.236;2022-07-25T08:43:04;3.60;;;1.58;;
68214;SDS011;55036;52.138;5.236;2022-07-25T08:45:31;2.85;;;1.33;;
68214;SDS011;55036;52.138;5.236;2022-07-25T08:47:58;5.03;;;1.70;;
68214;SDS011;55036;52.138;5.236;2022-07-25T08:50:26;5.25;;;1.70;;
68214;SDS011;55036;52.138;5.236;2022-07-25T08:52:54;4.18;;;1.40;;
68214;SDS011;55036;52.138;5.236;2022-07-25T08:55:41;3.40;;;1.40;;
68214;SDS011;55036;52.138;5.236;2022-07-25T08:58:11;6.72;;;1.50;;
68214;SDS011;55036;52.138;5.236;2022-07-25T09:00:39;6.18;;;1.88;;
68214;SDS011;55036;52.138;5.236;2022-07-25T09:03:07;5.40;;;2.53;;
68214;SDS011;55036;52.138;5.236;2022-07-25T09:05:35;4.65;;;1.60;;
68214;SDS011;55036;52.138;5.236;2022-07-25T09:08:10;4.05;;;1.63;;
68214;SDS011;55036;52.138;5.236;2022-07-25T09:10:38;4.13;;;1.50;;
68214;SDS011;55036;52.138;5.236;2022-07-25T09:13:12;5.13;;;1.40;;
68214;SDS011;55036;52.138;5.236;2022-07-25T09:15:52;8.85;;;2.15;;
68214;SDS011;55036;52.138;5.236;2022-07-25T09:18:23;4.82;;;2.17;;
68214;SDS011;55036;52.138;5.236;2022-07-25T09:20:57;5.10;;;2.08;;
68214;SDS011;55036;52.138;5.236;2022-07-25T09:23:27;10.65;;;2.35;;
68214;SDS011;55036;52.138;5.236;2022-07-25T09:26:03;5.15;;;1.73;;
68214;SDS011;55036;52.138;5.236;2022-07-25T09:28:38;5.88;;;1.83;;
68214;SDS011;55036;52.138;5.236;2022-07-25T09:31:15;7.20;;;1.90;;
68214;SDS011;55036;52.138;5.236;2022-07-25T09:33:45;4.00;;;1.67;;
68214;SDS011;55036;52.138;5.236;2022-07-25T09:36:21;5.32;;;1.67;;
68214;SDS011;55036;52.138;5.236;2022-07-25T09:38:52;8.18;;;2.83;;
68214;SDS011;55036;52.138;5.236;2022-07-25T09:41:38;2.80;;;1.70;;
68214;SDS011;55036;52.138;5.236;2022-07-25T09:44:15;4.75;;;1.55;;
68214;SDS011;55036;52.138;5.236;2022-07-25T09:46:42;5.93;;;1.70;;
68214;SDS011;55036;52.138;5.236;2022-07-25T09:49:09;4.78;;;1.50;;
68214;SDS011;55036;52.138;5.236;2022-07-25T09:51:40;5.20;;;2.05;;
68214;SDS011;55036;52.138;5.236;2022-07-25T09:54:07;5.18;;;1.63;;
68214;SDS011;55036;52.138;5.236;2022-07-25T09:56:35;5.28;;;1.90;;
68214;SDS011;55036;52.138;5.236;2022-07-25T09:59:03;6.20;;;1.80;;
68214;SDS011;55036;52.138;5.236;2022-07-25T10:01:36;6.75;;;1.75;;
68214;SDS011;55036;52.138;5.236;2022-07-25T10:04:27;7.13;;;2.15;;
68214;SDS011;55036;52.138;5.236;2022-07-25T10:07:18;4.25;;;1.77;;
68214;SDS011;55036;52.138;5.236;2022-07-25T10:09:48;6.10;;;1.63;;
68214;SDS011;55036;52.138;5.236;2022-07-25T10:12:20;4.97;;;1.65;;
68214;SDS011;55036;52.138;5.236;2022-07-25T10:15:08;4.18;;;1.73;;
68214;SDS011;55036;52.138;5.236;2022-07-25T10:17:38;5.80;;;1.83;;
68214;SDS011;55036;52.138;5.236;2022-07-25T10:20:06;6.25;;;1.58;;
68214;SDS011;55036;52.138;5.236;2022-07-25T10:22:38;4.97;;;1.58;;
68214;SDS011;55036;52.138;5.236;2022-07-25T10:25:23;3.58;;;1.40;;
68214;SDS011;55036;52.138;5.236;2022-07-25T10:27:51;5.45;;;1.48;;
68214;SDS011;55036;52.138;5.236;2022-07-25T10:30:27;7.00;;;2.08;;
68214;SDS011;55036;52.138;5.236;2022-07-25T10:32:59;7.47;;;1.67;;
68214;SDS011;55036;52.138;5.236;2022-07-25T10:35:29;4.20;;;1.80;;
68214;SDS011;55036;52.138;5.236;2022-07-25T10:37:57;5.45;;;1.92;;
68214;SDS011;55036;52.138;5.236;2022-07-25T10:40:28;5.65;;;1.98;;
68214;SDS011;55036;52.138;5.236;2022-07-25T10:43:20;7.43;;;2.25;;
68214;SDS011;55036;52.138;5.236;2022-07-25T10:45:48;5.43;;;1.98;;
68214;SDS011;55036;52.138;5.236;2022-07-25T10:48:24;7.00;;;2.23;;
68214;SDS011;55036;52.138;5.236;2022-07-25T10:50:56;6.32;;;1.90;;
68214;SDS011;55036;52.138;5.236;2022-07-25T10:56:16;5.15;;;2.30;;
68214;SDS011;55036;52.138;5.236;2022-07-25T10:58:57;3.38;;;1.92;;
68214;SDS011;55036;52.138;5.236;2022-07-25T11:01:26;5.97;;;2.17;;
68214;SDS011;55036;52.138;5.236;2022-07-25T11:04:02;5.82;;;2.05;;
68214;SDS011;55036;52.138;5.236;2022-07-25T11:06:34;6.90;;;2.63;;
68214;SDS011;55036;52.138;5.236;2022-07-25T11:09:11;10.35;;;2.60;;
68214;SDS011;55036;52.138;5.236;2022-07-25T11:11:53;6.40;;;2.75;;
68214;SDS011;55036;52.138;5.236;2022-07-25T11:16:51;6.72;;;2.60;;
68214;SDS011;55036;52.138;5.236;2022-07-25T11:21:55;6.28;;;2.45;;
68214;SDS011;55036;52.138;5.236;2022-07-25T11:24:37;8.45;;;2.80;;
68214;SDS011;55036;52.138;5.236;2022-07-25T11:27:06;8.55;;;2.65;;
68214;SDS011;55036;52.138;5.236;2022-07-25T11:29:38;7.43;;;3.00;;
68214;SDS011;55036;52.138;5.236;2022-07-25T11:32:07;5.88;;;2.60;;
68214;SDS011;55036;52.138;5.236;2022-07-25T11:34:37;7.00;;;2.80;;
68214;SDS011;55036;52.138;5.236;2022-07-25T11:37:07;8.43;;;2.90;;
68214;SDS011;55036;52.138;5.236;2022-07-25T11:39:36;9.20;;;3.95;;
68214;SDS011;55036;52.138;5.236;2022-07-25T11:44:36;6.20;;;2.67;;
68214;SDS011;55036;52.138;5.236;2022-07-25T11:47:26;7.72;;;3.28;;
68214;SDS011;55036;52.138;5.236;2022-07-25T11:49:59;11.23;;;2.92;;
68214;SDS011;55036;52.138;5.236;2022-07-25T11:52:28;8.98;;;3.25;;
68214;SDS011;55036;52.138;5.236;2022-07-25T11:54:58;9.50;;;2.83;;
68214;SDS011;55036;52.138;5.236;2022-07-25T11:57:36;10.45;;;2.67;;
68214;SDS011;55036;52.138;5.236;2022-07-25T12:00:09;7.93;;;2.70;;
68214;SDS011;55036;52.138;5.236;2022-07-25T12:02:47;8.00;;;2.70;;
68214;SDS011;55036;52.138;5.236;2022-07-25T12:05:16;9.35;;;3.13;;
68214;SDS011;55036;52.138;5.236;2022-07-25T12:07:46;9.60;;;2.55;;
68214;SDS011;55036;52.138;5.236;2022-07-25T12:10:14;7.15;;;2.53;;
68214;SDS011;55036;52.138;5.236;2022-07-25T12:15:14;10.70;;;2.97;;
68214;SDS011;55036;52.138;5.236;2022-07-25T12:17:55;8.85;;;2.75;;
68214;SDS011;55036;52.138;5.236;2022-07-25T12:20:24;9.80;;;3.25;;
68214;SDS011;55036;52.138;5.236;2022-07-25T12:22:53;10.48;;;2.80;;
68214;SDS011;55036;52.138;5.236;2022-07-25T12:25:21;9.40;;;2.75;;
68214;SDS011;55036;52.138;5.236;2022-07-25T12:27:55;13.73;;;3.33;;
68214;SDS011;55036;52.138;5.236;2022-07-25T12:30:24;9.80;;;2.42;;
68214;SDS011;55036;52.138;5.236;2022-07-25T12:32:53;7.28;;;2.22;;
68214;SDS011;55036;52.138;5.236;2022-07-25T12:35:20;10.25;;;3.47;;
68214;SDS011;55036;52.138;5.236;2022-07-25T12:37:47;6.10;;;2.60;;
68214;SDS011;55036;52.138;5.236;2022-07-25T12:40:16;8.60;;;2.97;;
68214;SDS011;55036;52.138;5.236;2022-07-25T12:42:43;6.70;;;2.65;;
68214;SDS011;55036;52.138;5.236;2022-07-25T12:45:11;7.35;;;2.85;;
68214;SDS011;55036;52.138;5.236;2022-07-25T12:47:41;11.57;;;2.40;;
68214;SDS011;55036;52.138;5.236;2022-07-25T12:50:08;11.60;;;2.40;;
68214;SDS011;55036;52.138;5.236;2022-07-25T12:52:35;8.50;;;2.35;;
68214;SDS011;55036;52.138;5.236;2022-07-25T12:55:04;8.43;;;2.22;;
68214;SDS011;55036;52.138;5.236;2022-07-25T12:57:32;7.10;;;2.00;;
68214;SDS011;55036;52.138;5.236;2022-07-25T13:00:00;6.50;;;2.42;;
68214;SDS011;55036;52.138;5.236;2022-07-25T13:02:28;9.60;;;2.30;;
68214;SDS011;55036;52.138;5.236;2022-07-25T13:04:54;9.77;;;2.17;;
68214;SDS011;55036;52.138;5.236;2022-07-25T13:07:21;8.25;;;2.20;;
68214;SDS011;55036;52.138;5.236;2022-07-25T13:09:48;6.10;;;1.50;;
68214;SDS011;55036;52.138;5.236;2022-07-25T13:12:15;7.85;;;1.92;;
68214;SDS011;55036;52.138;5.236;2022-07-25T13:14:41;6.80;;;2.10;;
68214;SDS011;55036;52.138;5.236;2022-07-25T13:17:08;6.45;;;1.88;;
68214;SDS011;55036;52.138;5.236;2022-07-25T13:19:36;10.77;;;3.00;;
68214;SDS011;55036;52.138;5.236;2022-07-25T13:22:03;8.20;;;2.90;;
68214;SDS011;55036;52.138;5.236;2022-07-25T13:24:30;9.05;;;2.60;;
68214;SDS011;55036;52.138;5.236;2022-07-25T13:27:03;10.02;;;2.70;;
68214;SDS011;55036;52.138;5.236;2022-07-25T13:29:31;16.27;;;3.35;;
68214;SDS011;55036;52.138;5.236;2022-07-25T13:32:00;7.25;;;2.28;;
68214;SDS011;55036;52.138;5.236;2022-07-25T13:34:27;10.88;;;2.78;;
68214;SDS011;55036;52.138;5.236;2022-07-25T13:36:54;11.63;;;2.17;;
68214;SDS011;55036;52.138;5.236;2022-07-25T13:39:20;8.52;;;2.63;;
68214;SDS011;55036;52.138;5.236;2022-07-25T13:41:47;5.35;;;1.63;;
68214;SDS011;55036;52.138;5.236;2022-07-25T13:44:14;11.77;;;1.88;;
68214;SDS011;55036;52.138;5.236;2022-07-25T13:46:41;10.85;;;2.10;;
68214;SDS011;55036;52.138;5.236;2022-07-25T13:49:11;9.27;;;2.05;;
68214;SDS011;55036;52.138;5.236;2022-07-25T13:51:38;6.35;;;1.50;;
68214;SDS011;55036;52.138;5.236;2022-07-25T13:54:05;9.45;;;2.17;;
68214;SDS011;55036;52.138;5.236;2022-07-25T13:56:32;10.48;;;2.30;;
68214;SDS011;55036;52.138;5.236;2022-07-25T13:59:00;7.22;;;1.70;;
68214;SDS011;55036;52.138;5.236;2022-07-25T14:01:28;8.43;;;1.90;;
68214;SDS011;55036;52.138;5.236;2022-07-25T14:03:55;14.35;;;2.72;;
68214;SDS011;55036;52.138;5.236;2022-07-25T14:06:22;9.13;;;2.10;;
68214;SDS011;55036;52.138;5.236;2022-07-25T14:08:49;10.35;;;2.10;;
68214;SDS011;55036;52.138;5.236;2022-07-25T14:11:16;10.43;;;2.10;;
68214;SDS011;55036;52.138;5.236;2022-07-25T14:13:42;9.48;;;2.03;;
68214;SDS011;55036;52.138;5.236;2022-07-25T14:16:11;7.00;;;1.67;;
68214;SDS011;55036;52.138;5.236;2022-07-25T14:18:41;11.77;;;1.95;;
68214;SDS011;55036;52.138;5.236;2022-07-25T14:21:08;7.65;;;2.28;;
68214;SDS011;55036;52.138;5.236;2022-07-25T14:23:34;8.43;;;1.65;;
68214;SDS011;55036;52.138;5.236;2022-07-25T14:26:01;8.55;;;1.70;;
68214;SDS011;55036;52.138;5.236;2022-07-25T14:28:28;5.50;;;1.33;;
68214;SDS011;55036;52.138;5.236;2022-07-25T14:30:55;6.82;;;1.48;;
68214;SDS011;55036;52.138;5.236;2022-07-25T14:33:22;3.47;;;1.10;;
68214;SDS011;55036;52.138;5.236;2022-07-25T14:35:48;4.07;;;1.20;;
68214;SDS011;55036;52.138;5.236;2022-07-25T14:38:15;4.63;;;1.23;;
68214;SDS011;55036;52.138;5.236;2022-07-25T14:40:42;5.43;;;1.50;;
68214;SDS011;55036;52.138;5.236;2022-07-25T14:43:09;6.97;;;1.60;;
68214;SDS011;55036;52.138;5.236;2022-07-25T14:45:36;2.75;;;1.13;;
68214;SDS011;55036;52.138;5.236;2022-07-25T14:48:06;4.13;;;0.93;;
68214;SDS011;55036;52.138;5.236;2022-07-25T14:50:32;3.67;;;1.08;;
68214;SDS011;55036;52.138;5.236;2022-07-25T14:52:59;6.15;;;1.45;;
68214;SDS011;55036;52.138;5.236;2022-07-25T14:55:26;4.25;;;1.23;;
68214;SDS011;55036;52.138;5.236;2022-07-25T14:57:53;7.47;;;1.33;;
68214;SDS011;55036;52.138;5.236;2022-07-25T15:00:20;3.63;;;1.17;;
68214;SDS011;55036;52.138;5.236;2022-07-25T15:02:52;5.47;;;1.20;;
68214;SDS011;55036;52.138;5.236;2022-07-25T15:05:19;5.03;;;1.08;;
68214;SDS011;55036;52.138;5.236;2022-07-25T15:07:46;8.65;;;1.25;;